Time;durP1;ratioP1;P1;durP2;ratioP2;P2;SDS_P1;SDS_P2;PMS_P1;PMS_P2;Temp;Humidity;BMP_temperature;BMP_pressure;BME280_temperature;BME280_humidity;BME280_pressure;Samples;Min_cycle;Max_cycle;Signal;HPM_P1;HPM_P2
2022/06/29 00:00:14;;;;;;;2.05;1.25;;;;;;;;;;5044256;28;20041;-58
2022/06/29 00:02:40;;;;;;;4.03;1.60;;;;;;;;;;5044959;28;20121;-58
2022/06/29 00:05:07;;;;;;;5.88;1.50;;;;;;;;;;5044205;28;20096;-58
2022/06/29 00:07:33;;;;;;;2.20;1.40;;;;;;;;;;5043838;28;20064;-58
2022/06/29 00:10:00;;;;;;;2.97;1.23;;;;;;;;;;5044579;28;20037;-58
2022/06/29 00:12:26;;;;;;;4.22;1.60;;;;;;;;;;5044402;28;20455;-58
2022/06/29 00:14:52;;;;;;;5.53;1.73;;;;;;;;;;5043616;28;20125;-58
2022/06/29 00:17:18;;;;;;;3.63;1.60;;;;;;;;;;5044445;28;20029;-58
2022/06/29 00:19:44;;;;;;;5.07;1.70;;;;;;;;;;5044610;28;20106;-59
2022/06/29 00:22:11;;;;;;;4.43;1.70;;;;;;;;;;5026494;28;20053;-58
2022/06/29 00:24:37;;;;;;;4.93;1.77;;;;;;;;;;5044059;28;20072;-58
2022/06/29 00:27:03;;;;;;;3.85;1.52;;;;;;;;;;5044287;28;20091;-58
2022/06/29 00:29:30;;;;;;;3.97;1.40;;;;;;;;;;5043445;28;20084;-58
2022/06/29 00:31:56;;;;;;;3.15;1.70;;;;;;;;;;5044482;28;20048;-58
2022/06/29 00:34:22;;;;;;;2.45;1.35;;;;;;;;;;5043987;28;20457;-59
2022/06/29 00:36:48;;;;;;;2.58;1.25;;;;;;;;;;5043565;28;20049;-58
2022/06/29 00:39:15;;;;;;;4.30;1.75;;;;;;;;;;5044085;28;20490;-59
2022/06/29 00:41:43;;;;;;;3.40;1.70;;;;;;;;;;5044398;28;20041;-58
2022/06/29 00:44:13;;;;;;;4.13;1.77;;;;;;;;;;5044862;28;20116;-58
2022/06/29 00:46:59;;;;;;;5.43;1.60;;;;;;;;;;5044616;28;20484;-58
2022/06/29 00:49:26;;;;;;;3.45;2.08;;;;;;;;;;5043785;28;20081;-58
2022/06/29 00:52:06;;;;;;;5.13;1.80;;;;;;;;;;5045665;28;20479;-59
2022/06/29 00:54:37;;;;;;;6.20;2.10;;;;;;;;;;5026175;28;20140;-58
2022/06/29 00:57:06;;;;;;;5.28;2.10;;;;;;;;;;5027663;28;20129;-58
2022/06/29 00:59:35;;;;;;;4.35;1.98;;;;;;;;;;5008742;28;20046;-58
2022/06/29 01:02:02;;;;;;;6.95;2.25;;;;;;;;;;5027421;28;20514;-58
2022/06/29 01:04:28;;;;;;;3.65;1.70;;;;;;;;;;5027134;28;20053;-58
2022/06/29 01:06:54;;;;;;;4.80;2.50;;;;;;;;;;5027934;28;20052;-57
2022/06/29 01:09:20;;;;;;;3.97;1.90;;;;;;;;;;5042133;23;20127;-58
2022/06/29 01:11:49;;;;;;;4.90;2.17;;;;;;;;;;5047558;28;20502;-58
2022/06/29 01:14:15;;;;;;;5.47;2.35;;;;;;;;;;5046547;28;20050;-59
2022/06/29 01:16:41;;;;;;;3.80;2.00;;;;;;;;;;5047699;28;20410;-58
2022/06/29 01:19:08;;;;;;;7.55;2.40;;;;;;;;;;5047486;28;20045;-58
2022/06/29 01:21:36;;;;;;;3.45;2.30;;;;;;;;;;5046672;28;20520;-58
2022/06/29 01:24:02;;;;;;;5.38;2.30;;;;;;;;;;5047635;28;20048;-58
2022/06/29 01:26:28;;;;;;;4.93;2.47;;;;;;;;;;5047024;28;20051;-58
2022/06/29 01:28:55;;;;;;;11.48;2.40;;;;;;;;;;5046880;28;20043;-58
2022/06/29 01:31:21;;;;;;;3.28;1.65;;;;;;;;;;5046356;28;20045;-58
2022/06/29 01:33:47;;;;;;;4.50;2.47;;;;;;;;;;5047144;28;20551;-58
2022/06/29 01:36:14;;;;;;;5.50;2.70;;;;;;;;;;5046360;28;20049;-59
2022/06/29 01:38:40;;;;;;;3.50;2.00;;;;;;;;;;5047793;28;20052;-58
2022/06/29 01:41:10;;;;;;;4.78;2.42;;;;;;;;;;5028329;28;20056;-58
2022/06/29 01:43:37;;;;;;;4.18;2.53;;;;;;;;;;5046755;28;20052;-58
2022/06/29 01:46:04;;;;;;;6.03;2.40;;;;;;;;;;5046244;28;20045;-58
2022/06/29 01:48:30;;;;;;;6.18;2.60;;;;;;;;;;5046394;28;20049;-58
2022/06/29 01:50:56;;;;;;;5.80;2.58;;;;;;;;;;5046711;28;20124;-58
2022/06/29 01:53:23;;;;;;;5.10;2.63;;;;;;;;;;5046999;28;20070;-58
2022/06/29 01:55:49;;;;;;;7.03;2.38;;;;;;;;;;5046931;28;20047;-58
2022/06/29 01:58:15;;;;;;;5.35;2.50;;;;;;;;;;5046878;28;20045;-58
2022/06/29 02:00:41;;;;;;;2.53;1.98;;;;;;;;;;5046294;28;20051;-58
2022/06/29 02:03:08;;;;;;;4.22;2.10;;;;;;;;;;5045946;28;20045;-58
2022/06/29 02:05:34;;;;;;;7.68;2.42;;;;;;;;;;5046489;28;20045;-58
2022/06/29 02:08:00;;;;;;;6.53;2.30;;;;;;;;;;5046511;28;20394;-58
2022/06/29 02:10:26;;;;;;;3.63;2.45;;;;;;;;;;5046202;28;20053;-58
2022/06/29 02:12:52;;;;;;;5.70;2.30;;;;;;;;;;5046765;28;20120;-58
2022/06/29 02:15:18;;;;;;;5.45;2.50;;;;;;;;;;5045629;28;20073;-58
2022/06/29 02:17:45;;;;;;;5.35;2.55;;;;;;;;;;5045788;28;20052;-58
2022/06/29 02:20:12;;;;;;;4.03;2.55;;;;;;;;;;5046744;28;20095;-58
2022/06/29 02:22:39;;;;;;;4.75;2.25;;;;;;;;;;5046778;28;20410;-57
2022/06/29 02:25:05;;;;;;;4.78;2.80;;;;;;;;;;5046341;28;20090;-58
2022/06/29 02:27:31;;;;;;;5.40;3.00;;;;;;;;;;5046066;28;20239;-57
2022/06/29 02:29:57;;;;;;;6.60;2.97;;;;;;;;;;5045445;28;20045;-58
2022/06/29 02:35:08;;;;;;;8.95;3.10;;;;;;;;;;5046374;28;20053;-58
2022/06/29 02:37:34;;;;;;;6.35;2.80;;;;;;;;;;5045865;28;20072;-57
2022/06/29 02:40:01;;;;;;;5.45;3.13;;;;;;;;;;5045617;28;20045;-57
2022/06/29 02:42:27;;;;;;;4.82;2.88;;;;;;;;;;5027151;28;20049;-58
2022/06/29 02:44:53;;;;;;;3.30;2.95;;;;;;;;;;5045040;28;20095;-58
2022/06/29 02:47:19;;;;;;;4.35;2.72;;;;;;;;;;5045398;28;20045;-58
2022/06/29 02:49:45;;;;;;;4.93;2.92;;;;;;;;;;5046000;28;20040;-57
2022/06/29 02:52:11;;;;;;;5.53;3.10;;;;;;;;;;5045901;28;20079;-58
2022/06/29 02:54:38;;;;;;;5.25;3.03;;;;;;;;;;5046079;28;20069;-58
2022/06/29 02:57:04;;;;;;;4.00;2.83;;;;;;;;;;5045249;28;20072;-57
2022/06/29 02:59:30;;;;;;;6.63;2.90;;;;;;;;;;5045147;28;20033;-58
2022/06/29 03:01:57;;;;;;;6.07;2.95;;;;;;;;;;5045721;28;20056;-58
2022/06/29 03:04:23;;;;;;;5.25;3.10;;;;;;;;;;5027673;28;20057;-58
2022/06/29 03:06:49;;;;;;;7.60;3.08;;;;;;;;;;5045877;28;20037;-58
2022/06/29 03:09:15;;;;;;;4.90;3.17;;;;;;;;;;5045002;28;20053;-59
2022/06/29 03:11:41;;;;;;;4.32;3.10;;;;;;;;;;5045345;28;20055;-58
2022/06/29 03:14:07;;;;;;;5.32;2.85;;;;;;;;;;5044217;28;20052;-58
2022/06/29 03:16:33;;;;;;;3.72;3.10;;;;;;;;;;5045126;28;20049;-58
2022/06/29 03:19:00;;;;;;;4.65;3.17;;;;;;;;;;5045551;28;20078;-58
2022/06/29 03:21:26;;;;;;;5.45;3.33;;;;;;;;;;5044922;28;20037;-58
2022/06/29 03:23:52;;;;;;;6.57;3.13;;;;;;;;;;5045220;28;20091;-58
2022/06/29 03:26:18;;;;;;;6.40;3.20;;;;;;;;;;5027135;28;20087;-58
2022/06/29 03:28:44;;;;;;;6.78;3.42;;;;;;;;;;5044657;28;20041;-59
2022/06/29 03:31:11;;;;;;;5.55;3.30;;;;;;;;;;5045201;28;20082;-58
2022/06/29 03:33:37;;;;;;;4.30;3.42;;;;;;;;;;5045024;28;20056;-57
2022/06/29 03:36:03;;;;;;;5.32;3.40;;;;;;;;;;5027256;28;20343;-58
2022/06/29 03:38:29;;;;;;;7.53;3.47;;;;;;;;;;5026742;28;20410;-57
2022/06/29 03:40:55;;;;;;;6.53;3.10;;;;;;;;;;5044105;28;20394;-58
2022/06/29 03:43:21;;;;;;;4.80;3.05;;;;;;;;;;5044863;28;20051;-58
2022/06/29 03:45:48;;;;;;;4.75;3.38;;;;;;;;;;5044327;28;20041;-58
2022/06/29 03:48:15;;;;;;;10.40;3.47;;;;;;;;;;5044973;28;20055;-58
2022/06/29 03:50:41;;;;;;;5.93;3.50;;;;;;;;;;5045254;28;20049;-58
2022/06/29 03:53:07;;;;;;;6.75;3.58;;;;;;;;;;5044791;28;20037;-58
2022/06/29 03:55:33;;;;;;;4.28;3.70;;;;;;;;;;5044514;28;20051;-57
2022/06/29 03:57:59;;;;;;;8.77;3.53;;;;;;;;;;5045203;28;20080;-57
2022/06/29 04:00:26;;;;;;;5.85;3.33;;;;;;;;;;5044099;28;20095;-58
2022/06/29 04:02:52;;;;;;;6.15;3.42;;;;;;;;;;5044641;28;20100;-58
2022/06/29 04:05:18;;;;;;;4.55;3.30;;;;;;;;;;5044487;28;20507;-58
2022/06/29 04:07:44;;;;;;;6.97;3.55;;;;;;;;;;5044282;28;20123;-58
2022/06/29 04:10:10;;;;;;;5.78;3.35;;;;;;;;;;5044881;28;20079;-57
2022/06/29 04:12:37;;;;;;;9.45;3.85;;;;;;;;;;5044495;28;20543;-58
2022/06/29 04:15:05;;;;;;;5.78;3.45;;;;;;;;;;5044067;28;20045;-58
2022/06/29 04:17:32;;;;;;;4.00;3.38;;;;;;;;;;5044627;28;20045;-58
2022/06/29 04:19:58;;;;;;;5.85;3.92;;;;;;;;;;5044516;28;20041;-58
2022/06/29 04:22:24;;;;;;;8.63;3.70;;;;;;;;;;5043776;28;20045;-58
2022/06/29 04:24:50;;;;;;;5.15;3.85;;;;;;;;;;5044334;28;20119;-58
2022/06/29 04:27:17;;;;;;;5.00;4.00;;;;;;;;;;5028982;28;20037;-58
2022/06/29 04:29:43;;;;;;;4.90;3.80;;;;;;;;;;5047682;28;20044;-58
2022/06/29 04:32:10;;;;;;;7.18;3.92;;;;;;;;;;5048640;28;20449;-58
2022/06/29 04:34:36;;;;;;;10.30;4.50;;;;;;;;;;5048035;28;20405;-58
2022/06/29 04:37:02;;;;;;;8.00;3.90;;;;;;;;;;5047977;28;20052;-58
2022/06/29 04:39:28;;;;;;;6.70;4.18;;;;;;;;;;5047439;28;20068;-58
2022/06/29 04:41:55;;;;;;;7.20;4.78;;;;;;;;;;5047678;28;20044;-58
2022/06/29 04:44:21;;;;;;;10.80;3.92;;;;;;;;;;5044136;28;20136;-57
2022/06/29 04:46:47;;;;;;;7.22;4.10;;;;;;;;;;5047625;28;20043;-58
2022/06/29 04:49:14;;;;;;;6.55;4.50;;;;;;;;;;5047282;28;20116;-59
2022/06/29 04:51:40;;;;;;;5.65;4.35;;;;;;;;;;5047511;28;20841;-58
2022/06/29 04:54:06;;;;;;;7.32;4.03;;;;;;;;;;5047506;28;20045;-57
2022/06/29 04:56:35;;;;;;;8.88;5.22;;;;;;;;;;5047693;28;20041;-57
2022/06/29 04:59:01;;;;;;;9.10;4.63;;;;;;;;;;5047153;28;20182;-58
2022/06/29 05:01:29;;;;;;;7.13;4.05;;;;;;;;;;5046984;28;20132;-58
2022/06/29 05:03:56;;;;;;;6.28;4.57;;;;;;;;;;5047035;28;20045;-58
2022/06/29 05:06:22;;;;;;;6.88;4.60;;;;;;;;;;5047776;28;20041;-57
2022/06/29 05:08:49;;;;;;;5.45;3.85;;;;;;;;;;5047397;28;20052;-57
2022/06/29 05:11:17;;;;;;;5.97;4.80;;;;;;;;;;5046646;28;20052;-57
2022/06/29 05:13:44;;;;;;;8.38;4.50;;;;;;;;;;5046958;28;20036;-58
2022/06/29 05:16:10;;;;;;;7.32;4.53;;;;;;;;;;5046517;28;20174;-58
2022/06/29 05:18:39;;;;;;;6.65;4.40;;;;;;;;;;5044149;28;20478;-58
2022/06/29 05:21:12;;;;;;;8.77;4.53;;;;;;;;;;5043917;28;20207;-58
2022/06/29 05:23:39;;;;;;;5.90;5.00;;;;;;;;;;5044733;28;20490;-58
2022/06/29 05:26:05;;;;;;;7.88;4.75;;;;;;;;;;5042685;28;20079;-59
2022/06/29 05:28:31;;;;;;;9.30;5.00;;;;;;;;;;5044077;28;20036;-60
2022/06/29 05:30:57;;;;;;;5.63;4.72;;;;;;;;;;5044420;28;20106;-59
2022/06/29 05:33:23;;;;;;;7.53;4.45;;;;;;;;;;5045752;28;20446;-58
2022/06/29 05:35:49;;;;;;;6.13;4.60;;;;;;;;;;5046507;28;20102;-59
2022/06/29 05:38:16;;;;;;;7.85;4.40;;;;;;;;;;5045495;28;20083;-59
2022/06/29 05:40:43;;;;;;;7.85;4.82;;;;;;;;;;5044582;28;20041;-59
2022/06/29 05:43:10;;;;;;;8.85;4.68;;;;;;;;;;5043837;28;20052;-59
2022/06/29 05:45:36;;;;;;;7.30;4.85;;;;;;;;;;5043056;28;20072;-59
2022/06/29 05:48:02;;;;;;;6.97;4.13;;;;;;;;;;5043394;28;20045;-59
2022/06/29 05:50:28;;;;;;;7.45;4.35;;;;;;;;;;5043407;28;20373;-59
2022/06/29 05:52:55;;;;;;;6.57;5.10;;;;;;;;;;5043900;28;20037;-59
2022/06/29 05:55:21;;;;;;;5.75;4.25;;;;;;;;;;5043723;28;20040;-58
2022/06/29 05:57:47;;;;;;;5.03;4.53;;;;;;;;;;5045767;28;20088;-58
2022/06/29 06:00:13;;;;;;;6.60;5.20;;;;;;;;;;5046035;28;20127;-59
2022/06/29 06:02:39;;;;;;;6.90;4.25;;;;;;;;;;5046556;28;20136;-58
2022/06/29 06:05:06;;;;;;;6.50;4.68;;;;;;;;;;5045812;28;20044;-60
2022/06/29 06:07:32;;;;;;;10.02;4.60;;;;;;;;;;5045174;28;20048;-58
2022/06/29 06:09:58;;;;;;;7.75;4.55;;;;;;;;;;5046797;28;20049;-58
2022/06/29 06:12:25;;;;;;;10.82;4.68;;;;;;;;;;5046024;28;20080;-58
2022/06/29 06:14:51;;;;;;;5.47;4.10;;;;;;;;;;5044678;28;20043;-58
2022/06/29 06:17:17;;;;;;;8.02;4.38;;;;;;;;;;5044583;28;20443;-59
2022/06/29 06:19:43;;;;;;;7.85;4.70;;;;;;;;;;5046649;28;20052;-59
2022/06/29 06:22:09;;;;;;;5.68;3.90;;;;;;;;;;5046749;28;20513;-58
2022/06/29 06:24:35;;;;;;;5.97;4.05;;;;;;;;;;5046921;28;20048;-58
2022/06/29 06:27:01;;;;;;;9.60;4.10;;;;;;;;;;5046330;28;20548;-58
2022/06/29 06:29:27;;;;;;;5.55;4.20;;;;;;;;;;5044780;28;20087;-58
2022/06/29 06:31:54;;;;;;;9.00;4.13;;;;;;;;;;5045629;28;20037;-58
2022/06/29 06:34:20;;;;;;;6.50;3.85;;;;;;;;;;5046586;28;20181;-58
2022/06/29 06:36:46;;;;;;;5.10;3.63;;;;;;;;;;5046449;28;20045;-59
2022/06/29 06:39:12;;;;;;;4.80;3.80;;;;;;;;;;5046882;28;20045;-58
2022/06/29 06:41:39;;;;;;;3.83;3.17;;;;;;;;;;5046983;28;20041;-58
2022/06/29 06:44:05;;;;;;;6.18;3.80;;;;;;;;;;5045607;28;20128;-59
2022/06/29 06:46:34;;;;;;;5.25;3.53;;;;;;;;;;5046232;28;20521;-58
2022/06/29 06:49:00;;;;;;;6.85;3.90;;;;;;;;;;5027803;28;20076;-58
2022/06/29 06:51:26;;;;;;;7.03;3.78;;;;;;;;;;5046210;28;20067;-58
2022/06/29 06:53:52;;;;;;;10.98;3.55;;;;;;;;;;5046236;28;20045;-58
2022/06/29 06:56:19;;;;;;;5.43;3.35;;;;;;;;;;5045513;28;20094;-59
2022/06/29 06:58:45;;;;;;;7.78;3.92;;;;;;;;;;5045672;28;20552;-59
2022/06/29 07:01:11;;;;;;;5.53;3.50;;;;;;;;;;5046423;28;20388;-58
2022/06/29 07:03:38;;;;;;;4.90;3.13;;;;;;;;;;5046753;28;20052;-58
2022/06/29 07:06:05;;;;;;;4.53;3.05;;;;;;;;;;5046134;28;20521;-59
2022/06/29 07:08:31;;;;;;;3.97;3.15;;;;;;;;;;5046069;28;20037;-58
2022/06/29 07:10:58;;;;;;;3.22;2.47;;;;;;;;;;5046457;28;20049;-58
2022/06/29 07:13:25;;;;;;;4.32;3.42;;;;;;;;;;5045077;28;20080;-58
2022/06/29 07:15:52;;;;;;;6.45;3.13;;;;;;;;;;5045994;28;20041;-59
2022/06/29 07:18:18;;;;;;;4.72;2.50;;;;;;;;;;5045884;28;20045;-59
2022/06/29 07:20:44;;;;;;;3.53;2.00;;;;;;;;;;5046151;28;20041;-58
2022/06/29 07:23:10;;;;;;;6.95;2.88;;;;;;;;;;5045914;28;20132;-58
2022/06/29 07:25:37;;;;;;;4.80;2.42;;;;;;;;;;5027553;28;20037;-59
2022/06/29 07:28:03;;;;;;;4.90;2.25;;;;;;;;;;5045790;28;20279;-58
2022/06/29 07:30:29;;;;;;;2.83;2.10;;;;;;;;;;5044707;28;20029;-59
2022/06/29 07:32:55;;;;;;;6.60;1.88;;;;;;;;;;5045991;28;20130;-58
2022/06/29 07:35:21;;;;;;;2.53;2.05;;;;;;;;;;5045555;28;20037;-59
2022/06/29 07:37:48;;;;;;;3.03;1.88;;;;;;;;;;5045961;28;20049;-58
2022/06/29 07:40:14;;;;;;;6.10;1.80;;;;;;;;;;5045434;28;20123;-58
2022/06/29 07:42:40;;;;;;;6.00;1.75;;;;;;;;;;5045811;28;20122;-58
2022/06/29 07:45:06;;;;;;;3.85;1.70;;;;;;;;;;5045211;28;20076;-58
2022/06/29 07:47:33;;;;;;;5.40;1.90;;;;;;;;;;5045282;28;20056;-59
2022/06/29 07:49:59;;;;;;;4.53;2.00;;;;;;;;;;5045271;28;20132;-59
2022/06/29 07:52:26;;;;;;;5.18;1.40;;;;;;;;;;5045298;28;20400;-57
2022/06/29 07:54:52;;;;;;;5.72;1.85;;;;;;;;;;5045349;28;20039;-58
2022/06/29 07:57:18;;;;;;;2.25;1.55;;;;;;;;;;5045282;28;20049;-58
2022/06/29 07:59:48;;;;;;;2.63;1.92;;;;;;;;;;5044952;28;20033;-58
2022/06/29 08:02:15;;;;;;;2.40;1.60;;;;;;;;;;5049410;28;20417;-58
2022/06/29 08:04:41;;;;;;;5.15;1.40;;;;;;;;;;5049921;28;20037;-58
2022/06/29 08:07:07;;;;;;;3.08;1.58;;;;;;;;;;5049696;28;20488;-59
2022/06/29 08:09:33;;;;;;;5.25;1.70;;;;;;;;;;5049013;28;20567;-59
2022/06/29 08:11:59;;;;;;;4.90;1.90;;;;;;;;;;5049141;28;20166;-58
2022/06/29 08:14:25;;;;;;;2.55;1.38;;;;;;;;;;5048009;28;20036;-59
2022/06/29 08:16:51;;;;;;;3.88;1.70;;;;;;;;;;5049593;28;20045;-58
2022/06/29 08:19:18;;;;;;;5.30;1.45;;;;;;;;;;5031292;28;20479;-58
2022/06/29 08:21:44;;;;;;;4.22;1.30;;;;;;;;;;5049149;28;20545;-59
2022/06/29 08:24:10;;;;;;;4.30;2.05;;;;;;;;;;5049512;28;20040;-58
2022/06/29 08:26:36;;;;;;;4.57;1.95;;;;;;;;;;5049061;28;20090;-58
2022/06/29 08:29:03;;;;;;;4.80;2.13;;;;;;;;;;5030170;28;20040;-59
2022/06/29 08:31:29;;;;;;;4.82;1.65;;;;;;;;;;5048809;28;20041;-59
2022/06/29 08:33:56;;;;;;;2.72;1.77;;;;;;;;;;5048955;28;20124;-58
2022/06/29 08:36:22;;;;;;;4.57;1.80;;;;;;;;;;5048961;28;20049;-58
2022/06/29 08:38:48;;;;;;;2.38;1.33;;;;;;;;;;5048292;28;20064;-59
2022/06/29 08:41:15;;;;;;;2.00;1.50;;;;;;;;;;5048345;28;20471;-59
2022/06/29 08:43:42;;;;;;;6.57;1.30;;;;;;;;;;5048164;28;20498;-58
2022/06/29 08:46:11;;;;;;;3.58;1.70;;;;;;;;;;5049357;28;20052;-59
2022/06/29 08:48:38;;;;;;;4.80;1.67;;;;;;;;;;5048921;28;20037;-58
2022/06/29 08:51:05;;;;;;;4.10;1.58;;;;;;;;;;5049217;28;20372;-59
2022/06/29 08:53:32;;;;;;;3.60;1.92;;;;;;;;;;5048439;28;20096;-59
2022/06/29 08:56:00;;;;;;;2.80;1.30;;;;;;;;;;5048840;28;20029;-59
2022/06/29 08:58:26;;;;;;;3.57;1.20;;;;;;;;;;5047976;28;20041;-58
2022/06/29 09:00:52;;;;;;;4.93;1.33;;;;;;;;;;5048707;28;20287;-59
2022/06/29 09:03:19;;;;;;;7.95;1.83;;;;;;;;;;5047956;28;20107;-59
2022/06/29 09:05:47;;;;;;;3.05;1.45;;;;;;;;;;5048467;28;20067;-59
2022/06/29 09:08:13;;;;;;;2.42;1.25;;;;;;;;;;5048079;28;20056;-58
2022/06/29 09:10:39;;;;;;;1.88;1.45;;;;;;;;;;5048788;28;20037;-59
2022/06/29 09:13:05;;;;;;;5.05;1.52;;;;;;;;;;5046784;28;20071;-58
2022/06/29 09:15:36;;;;;;;4.57;1.38;;;;;;;;;;5048248;28;20048;-59
2022/06/29 09:18:03;;;;;;;2.38;1.33;;;;;;;;;;5048272;28;20059;-59
2022/06/29 09:20:42;;;;;;;4.35;1.63;;;;;;;;;;5047888;28;20068;-58
2022/06/29 09:23:09;;;;;;;5.05;1.73;;;;;;;;;;5048063;28;20106;-59
2022/06/29 09:25:39;;;;;;;3.30;1.63;;;;;;;;;;5047609;28;20052;-59
2022/06/29 09:28:23;;;;;;;3.13;1.55;;;;;;;;;;5047540;28;20147;-58
2022/06/29 09:30:49;;;;;;;2.08;1.40;;;;;;;;;;5034630;28;20071;-59
2022/06/29 09:33:16;;;;;;;3.08;1.95;;;;;;;;;;5047808;28;20140;-59
2022/06/29 09:35:42;;;;;;;3.03;1.70;;;;;;;;;;5048499;28;20064;-58
2022/06/29 09:38:21;;;;;;;5.63;1.60;;;;;;;;;;5048337;28;20047;-59
2022/06/29 09:41:10;;;;;;;5.38;1.65;;;;;;;;;;5047416;28;20041;-59
2022/06/29 09:43:41;;;;;;;3.53;1.55;;;;;;;;;;5019826;28;20060;-58
2022/06/29 09:46:08;;;;;;;2.80;1.73;;;;;;;;;;5034633;28;20051;-59
2022/06/29 09:48:35;;;;;;;3.63;1.83;;;;;;;;;;5047653;28;20049;-59
2022/06/29 09:51:30;;;;;;;3.45;1.60;;;;;;;;;;5047384;28;20049;-59
2022/06/29 09:53:50;;;;;;;4.05;1.75;;;;;;;;;;5047273;28;20127;-58
2022/06/29 09:56:19;;;;;;;4.85;1.75;;;;;;;;;;5047354;28;20044;-58
2022/06/29 09:58:46;;;;;;;2.45;1.88;;;;;;;;;;5046536;28;20502;-59
2022/06/29 10:03:58;;;;;;;4.22;2.10;;;;;;;;;;5047280;28;20071;-58
2022/06/29 10:06:25;;;;;;;3.70;1.70;;;;;;;;;;5047243;28;20048;-58
2022/06/29 10:08:51;;;;;;;5.53;1.88;;;;;;;;;;5047070;28;20061;-59
2022/06/29 10:14:09;;;;;;;4.38;1.90;;;;;;;;;;5046340;28;20051;-58
2022/06/29 10:16:40;;;;;;;5.72;2.03;;;;;;;;;;5046767;28;20036;-58
2022/06/29 10:19:06;;;;;;;4.47;1.70;;;;;;;;;;5046929;28;20210;-58
2022/06/29 10:21:33;;;;;;;4.85;1.58;;;;;;;;;;5047012;28;20551;-59
2022/06/29 10:24:00;;;;;;;3.38;1.70;;;;;;;;;;5046961;28;20037;-58
2022/06/29 10:26:30;;;;;;;3.70;1.65;;;;;;;;;;5028968;28;20419;-58
2022/06/29 10:29:06;;;;;;;2.67;1.40;;;;;;;;;;5046025;28;20044;-59
2022/06/29 10:31:51;;;;;;;5.32;1.80;;;;;;;;;;5046726;28;20691;-59
2022/06/29 10:37:24;;;;;;;;;;;;;;;;;;5046597;28;20053;-59
2022/06/29 10:39:51;;;;;;;8.18;2.00;;;;;;;;;;5046573;28;19921;-59
2022/06/29 10:45:08;;;;;;;4.47;1.90;;;;;;;;;;5046861;28;20083;-59
2022/06/29 10:47:35;;;;;;;5.68;1.80;;;;;;;;;;5046418;28;20033;-58
2022/06/29 10:52:44;;;;;;;2.97;1.75;;;;;;;;;;5046607;28;20087;-58
2022/06/29 10:55:11;;;;;;;4.40;2.05;;;;;;;;;;5046466;28;20043;-59
2022/06/29 10:57:38;;;;;;;4.63;1.80;;;;;;;;;;5045319;28;20106;-58
2022/06/29 11:00:08;;;;;;;5.25;2.00;;;;;;;;;;5046387;28;20075;-58
2022/06/29 11:02:34;;;;;;;3.97;1.98;;;;;;;;;;5045142;28;20398;-58
2022/06/29 11:05:01;;;;;;;4.28;1.90;;;;;;;;;;5045338;28;20116;-59
2022/06/29 11:12:58;;;;;;;6.57;2.30;;;;;;;;;;5044573;28;20045;-59
2022/06/29 11:15:41;;;;;;;5.00;1.70;;;;;;;;;;5045819;28;20049;-59
2022/06/29 11:18:11;;;;;;;2.80;1.88;;;;;;;;;;5045148;28;20076;-60
2022/06/29 11:20:38;;;;;;;2.78;1.60;;;;;;;;;;5046012;28;20036;-60
2022/06/29 11:23:10;;;;;;;2.40;1.58;;;;;;;;;;5045328;28;20545;-59
2022/06/29 11:25:40;;;;;;;3.10;1.60;;;;;;;;;;5045148;28;20037;-60
2022/06/29 11:28:06;;;;;;;4.00;1.75;;;;;;;;;;5037881;28;20041;-60
2022/06/29 11:30:34;;;;;;;2.47;2.00;;;;;;;;;;5023853;28;20128;-60
2022/06/29 11:33:10;;;;;;;2.95;2.10;;;;;;;;;;5041576;28;20136;-60
2022/06/29 11:35:38;;;;;;;4.35;1.80;;;;;;;;;;5039956;28;20110;-60
2022/06/29 11:38:05;;;;;;;7.22;2.20;;;;;;;;;;5023910;28;20098;-60
2022/06/29 11:40:41;;;;;;;4.28;2.50;;;;;;;;;;5042394;28;20040;-60
2022/06/29 11:43:07;;;;;;;3.92;2.30;;;;;;;;;;5041922;28;20776;-59
2022/06/29 11:45:44;;;;;;;3.00;2.40;;;;;;;;;;5042007;28;20044;-59
2022/06/29 11:48:14;;;;;;;6.47;2.20;;;;;;;;;;5029054;28;20052;-60
2022/06/29 11:50:56;;;;;;;3.03;2.30;;;;;;;;;;5035003;28;20040;-59
2022/06/29 11:53:41;;;;;;;5.63;2.33;;;;;;;;;;5040868;28;20049;-59
2022/06/29 11:56:11;;;;;;;3.05;2.50;;;;;;;;;;5042974;28;20094;-59
2022/06/29 11:58:39;;;;;;;5.45;2.85;;;;;;;;;;5041806;28;20036;-59
2022/06/29 12:01:05;;;;;;;;;;;;;;;;;;5042768;28;20103;-59
2022/06/29 12:03:32;;;;;;;5.30;2.78;;;;;;;;;;5042338;28;19925;-59
2022/06/29 12:05:58;;;;;;;6.95;2.63;;;;;;;;;;5042100;28;20043;-60
2022/06/29 12:08:26;;;;;;;3.75;2.65;;;;;;;;;;5042488;28;20051;-59
2022/06/29 12:10:52;;;;;;;5.97;3.28;;;;;;;;;;5034257;28;20057;-59
2022/06/29 12:13:18;;;;;;;5.05;2.70;;;;;;;;;;5033658;28;20100;-59
2022/06/29 12:15:44;;;;;;;3.78;3.00;;;;;;;;;;5027684;28;20053;-59
2022/06/29 12:18:11;;;;;;;3.10;2.70;;;;;;;;;;5045217;28;20068;-60
2022/06/29 12:20:37;;;;;;;6.13;2.72;;;;;;;;;;5043413;28;20175;-59
2022/06/29 12:23:03;;;;;;;8.25;4.13;;;;;;;;;;5044801;28;20056;-60
2022/06/29 12:25:29;;;;;;;3.75;3.33;;;;;;;;;;5043684;28;20033;-60
2022/06/29 12:27:55;;;;;;;5.32;3.47;;;;;;;;;;5026399;28;20045;-60
2022/06/29 12:30:21;;;;;;;3.60;3.00;;;;;;;;;;5043336;28;20045;-60
2022/06/29 12:32:48;;;;;;;6.13;3.35;;;;;;;;;;5043315;28;20041;-60
2022/06/29 12:35:14;;;;;;;4.97;3.28;;;;;;;;;;5042858;28;20036;-59
2022/06/29 12:37:43;;;;;;;7.00;2.97;;;;;;;;;;5044092;28;20045;-60
2022/06/29 12:40:11;;;;;;;3.88;3.13;;;;;;;;;;5044336;28;20033;-59
2022/06/29 12:42:37;;;;;;;4.70;3.33;;;;;;;;;;5042940;28;20047;-59
2022/06/29 12:45:04;;;;;;;3.55;3.17;;;;;;;;;;5044323;28;20041;-60
2022/06/29 12:47:30;;;;;;;4.90;3.50;;;;;;;;;;5044627;28;20048;-60
2022/06/29 12:49:57;;;;;;;4.85;3.20;;;;;;;;;;5046368;28;20041;-60
2022/06/29 12:52:23;;;;;;;6.97;3.25;;;;;;;;;;5029846;28;20383;-60
2022/06/29 12:54:49;;;;;;;5.45;3.67;;;;;;;;;;5047189;28;20076;-60
2022/06/29 12:57:19;;;;;;;5.65;3.58;;;;;;;;;;5046487;28;20525;-60
2022/06/29 12:59:45;;;;;;;6.32;3.40;;;;;;;;;;5048234;28;20037;-60
2022/06/29 13:02:12;;;;;;;4.05;3.60;;;;;;;;;;5047773;28;20087;-60
2022/06/29 13:04:38;;;;;;;8.65;3.75;;;;;;;;;;5047307;28;20670;-59
2022/06/29 13:07:04;;;;;;;7.05;3.22;;;;;;;;;;5047579;28;20033;-59
2022/06/29 13:09:31;;;;;;;5.13;3.53;;;;;;;;;;5047001;28;20048;-59
2022/06/29 13:11:57;;;;;;;4.88;3.80;;;;;;;;;;5047598;28;20099;-59
2022/06/29 13:14:23;;;;;;;5.47;3.53;;;;;;;;;;5046865;28;20037;-59
2022/06/29 13:16:49;;;;;;;3.70;3.30;;;;;;;;;;5047156;28;20120;-59
2022/06/29 13:19:15;;;;;;;5.28;3.70;;;;;;;;;;5047303;28;20037;-59
2022/06/29 13:21:41;;;;;;;6.38;3.20;;;;;;;;;;5047450;28;20053;-59
2022/06/29 13:24:07;;;;;;;4.93;3.28;;;;;;;;;;5047436;28;20132;-59
2022/06/29 13:26:34;;;;;;;4.57;3.50;;;;;;;;;;5047007;28;20080;-59
2022/06/29 13:29:00;;;;;;;4.15;3.20;;;;;;;;;;5046808;28;20117;-59
2022/06/29 13:31:28;;;;;;;5.63;3.13;;;;;;;;;;5046557;28;20087;-59
2022/06/29 13:33:54;;;;;;;8.00;3.42;;;;;;;;;;5047504;28;20117;-59
2022/06/29 13:36:20;;;;;;;6.57;3.25;;;;;;;;;;5047063;28;20079;-59
2022/06/29 13:38:46;;;;;;;5.95;3.90;;;;;;;;;;5047573;28;20099;-59
2022/06/29 13:41:15;;;;;;;3.63;2.83;;;;;;;;;;5047093;28;20051;-63
2022/06/29 13:43:41;;;;;;;5.35;3.42;;;;;;;;;;5046727;28;20045;-59
2022/06/29 13:46:08;;;;;;;8.15;3.60;;;;;;;;;;5047284;28;20037;-61
2022/06/29 13:48:34;;;;;;;6.07;3.15;;;;;;;;;;5045742;28;20068;-61
2022/06/29 13:51:00;;;;;;;4.80;2.80;;;;;;;;;;5045276;28;20091;-61
2022/06/29 13:53:26;;;;;;;4.82;2.70;;;;;;;;;;5046476;28;20065;-60
2022/06/29 13:55:53;;;;;;;8.38;3.08;;;;;;;;;;5046589;28;20076;-61
2022/06/29 13:58:19;;;;;;;4.32;3.10;;;;;;;;;;5045533;28;20083;-61
2022/06/29 14:00:46;;;;;;;6.78;3.33;;;;;;;;;;5046376;28;20045;-61
2022/06/29 14:03:13;;;;;;;6.45;2.95;;;;;;;;;;5046465;28;20063;-61
2022/06/29 14:05:40;;;;;;;9.40;2.45;;;;;;;;;;5046618;28;20064;-61
2022/06/29 14:08:06;;;;;;;3.15;2.22;;;;;;;;;;5045858;28;20056;-60
2022/06/29 14:10:32;;;;;;;5.07;2.28;;;;;;;;;;5045598;28;20045;-61
2022/06/29 14:12:58;;;;;;;4.00;2.60;;;;;;;;;;5044128;28;20422;-60
2022/06/29 14:15:27;;;;;;;5.22;2.78;;;;;;;;;;5046460;28;20045;-60
2022/06/29 14:17:53;;;;;;;4.68;2.50;;;;;;;;;;5046251;28;20064;-60
2022/06/29 14:20:19;;;;;;;3.85;2.00;;;;;;;;;;5045617;28;20045;-58
2022/06/29 14:22:46;;;;;;;3.10;2.17;;;;;;;;;;5027651;28;20490;-58
2022/06/29 14:25:12;;;;;;;6.32;2.20;;;;;;;;;;5046447;28;20072;-58
2022/06/29 14:27:38;;;;;;;4.15;2.30;;;;;;;;;;5046054;28;20366;-58
2022/06/29 14:30:05;;;;;;;3.25;2.28;;;;;;;;;;5045279;28;20040;-58
2022/06/29 14:32:31;;;;;;;4.07;2.28;;;;;;;;;;5044978;28;20709;-58
2022/06/29 14:34:57;;;;;;;6.95;2.67;;;;;;;;;;5045242;28;20059;-58
2022/06/29 14:37:23;;;;;;;9.55;3.30;;;;;;;;;;5045187;28;20059;-58
2022/06/29 14:39:50;;;;;;;2.58;2.05;;;;;;;;;;5045328;28;20478;-58
2022/06/29 14:42:16;;;;;;;6.60;2.40;;;;;;;;;;5044575;28;20044;-58
2022/06/29 14:44:42;;;;;;;6.78;2.63;;;;;;;;;;5044625;28;20044;-58
2022/06/29 14:47:08;;;;;;;6.70;2.60;;;;;;;;;;5027520;28;20044;-58
2022/06/29 14:49:35;;;;;;;3.38;2.38;;;;;;;;;;5045245;28;20041;-58
2022/06/29 14:52:01;;;;;;;5.43;2.70;;;;;;;;;;5045346;28;20065;-58
2022/06/29 14:54:28;;;;;;;5.85;2.45;;;;;;;;;;5037697;28;20037;-58
2022/06/29 14:56:57;;;;;;;4.93;2.80;;;;;;;;;;5026042;28;20041;-58
2022/06/29 14:59:23;;;;;;;5.90;2.80;;;;;;;;;;5039164;28;20131;-58
2022/06/29 15:01:49;;;;;;;4.90;2.58;;;;;;;;;;5045894;28;20049;-58
2022/06/29 15:04:17;;;;;;;3.63;2.40;;;;;;;;;;5044886;28;20040;-58